Time;durP1;ratioP1;P1;durP2;ratioP2;P2;SDS_P1;SDS_P2;PMS_P1;PMS_P2;Temp;Humidity;BMP_temperature;BMP_pressure;BME280_temperature;BME280_humidity;BME280_pressure;Samples;Min_cycle;Max_cycle;Signal;HPM_P1;HPM_P2
2021/05/05 00:01:05;;;;;;;1.50;1.40;;;11.70;99.90;;;;;;6231853;28;20326;-71
2021/05/05 00:04:07;;;;;;;5.07;1.60;;;11.60;99.90;;;;;;6231629;28;20232;-71
2021/05/05 00:07:09;;;;;;;1.63;1.40;;;11.50;99.90;;;;;;6228342;28;20586;-71
2021/05/05 00:10:13;;;;;;;2.87;1.67;;;11.40;99.90;;;;;;6231614;28;20234;-71
2021/05/05 00:13:16;;;;;;;2.07;1.40;;;11.30;99.90;;;;;;6229562;28;20581;-71
2021/05/05 00:16:18;;;;;;;1.67;1.37;;;11.30;99.90;;;;;;6231150;28;20338;-71
2021/05/05 00:19:20;;;;;;;2.70;1.53;;;11.20;99.90;;;;;;6246182;28;20315;-71
2021/05/05 00:22:22;;;;;;;1.40;1.30;;;11.20;99.90;;;;;;6229829;28;20242;-71
2021/05/05 00:25:23;;;;;;;2.00;1.40;;;11.20;99.90;;;;;;6232982;28;20354;-71
2021/05/05 00:28:25;;;;;;;1.83;1.30;;;11.20;99.90;;;;;;6232056;28;20245;-72
2021/05/05 00:31:27;;;;;;;1.53;1.30;;;11.20;99.90;;;;;;6229412;28;20373;-71
2021/05/05 00:34:29;;;;;;;1.37;1.27;;;11.10;99.90;;;;;;6229390;28;20238;-71
2021/05/05 00:37:31;;;;;;;1.23;1.13;;;11.10;99.90;;;;;;6232222;28;20661;-71
2021/05/05 00:40:33;;;;;;;1.70;1.50;;;11.00;99.90;;;;;;6230863;28;20326;-71
2021/05/05 00:43:35;;;;;;;1.63;1.50;;;10.90;99.90;;;;;;6230955;28;20234;-71
2021/05/05 00:46:37;;;;;;;2.30;1.40;;;10.80;99.90;;;;;;6230025;28;20314;-71
2021/05/05 00:49:39;;;;;;;1.67;1.50;;;10.70;99.90;;;;;;6230882;28;20242;-71
2021/05/05 00:52:41;;;;;;;1.53;1.40;;;10.60;99.90;;;;;;6232530;28;20243;-71
2021/05/05 00:55:43;;;;;;;2.40;1.33;;;10.60;99.90;;;;;;6231242;28;20239;-71
2021/05/05 00:58:45;;;;;;;2.40;1.80;;;10.40;99.90;;;;;;6229272;28;20284;-71
2021/05/05 01:01:47;;;;;;;3.10;1.60;;;10.30;99.90;;;;;;6232829;28;20312;-71
2021/05/05 01:04:50;;;;;;;1.70;1.60;;;10.30;99.90;;;;;;6230435;28;20254;-71
2021/05/05 01:07:53;;;;;;;1.43;1.33;;;10.20;99.90;;;;;;6230907;28;20346;-71
2021/05/05 01:10:55;;;;;;;1.73;1.63;;;10.10;99.90;;;;;;6232089;28;20246;-71
2021/05/05 01:13:57;;;;;;;1.67;1.50;;;10.00;99.90;;;;;;6229747;28;20233;-71
2021/05/05 01:16:59;;;;;;;4.27;1.60;;;9.90;99.90;;;;;;6231178;28;20642;-71
2021/05/05 01:20:01;;;;;;;1.60;1.50;;;9.90;99.90;;;;;;6227896;28;20223;-71
2021/05/05 01:23:05;;;;;;;1.83;1.50;;;9.80;99.90;;;;;;6209840;28;20242;-71
2021/05/05 01:26:07;;;;;;;1.80;1.70;;;9.80;99.90;;;;;;6211856;28;20230;-71
2021/05/05 01:29:10;;;;;;;2.40;1.43;;;9.70;99.90;;;;;;6209782;28;20242;-71
2021/05/05 01:32:12;;;;;;;2.20;1.37;;;9.70;99.90;;;;;;6211078;28;20297;-71
2021/05/05 01:35:17;;;;;;;1.67;1.53;;;9.70;99.90;;;;;;6210540;28;20239;-71
2021/05/05 01:38:19;;;;;;;1.50;1.33;;;9.70;99.90;;;;;;6209584;28;20306;-71
2021/05/05 01:41:23;;;;;;;1.30;1.20;;;9.60;99.90;;;;;;6209483;28;20280;-71
2021/05/05 01:44:33;;;;;;;2.20;1.27;;;9.60;99.90;;;;;;6210175;28;20611;-71
2021/05/05 01:47:38;;;;;;;1.40;1.30;;;9.70;99.90;;;;;;6210207;28;20265;-71
2021/05/05 01:50:41;;;;;;;1.93;1.50;;;9.70;99.90;;;;;;6241887;28;20234;-72
2021/05/05 01:53:43;;;;;;;2.43;1.70;;;9.70;99.90;;;;;;6260199;28;20237;-72
2021/05/05 01:56:45;;;;;;;1.70;1.57;;;9.60;99.90;;;;;;6259273;28;20234;-72
2021/05/05 01:59:51;;;;;;;1.50;1.40;;;9.60;99.90;;;;;;6258929;28;20241;-71
2021/05/05 02:02:53;;;;;;;1.43;1.33;;;9.50;99.90;;;;;;6257520;28;20374;-72
2021/05/05 02:06:01;;;;;;;1.67;1.57;;;9.50;99.90;;;;;;6258783;28;20314;-71
2021/05/05 02:09:19;;;;;;;1.60;1.50;;;9.60;99.90;;;;;;6249382;28;20264;-71
2021/05/05 02:12:21;;;;;;;2.03;1.60;;;9.50;99.90;;;;;;6249891;28;20252;-71
2021/05/05 02:15:24;;;;;;;1.20;1.10;;;9.60;99.90;;;;;;6234823;28;20580;-71
2021/05/05 02:18:31;;;;;;;1.57;1.33;;;9.50;99.90;;;;;;6232680;28;20295;-71
2021/05/05 02:21:33;;;;;;;1.77;1.63;;;9.60;99.90;;;;;;6261670;28;20244;-71
2021/05/05 02:24:36;;;;;;;1.83;1.50;;;9.50;99.90;;;;;;6262333;28;20730;-72
2021/05/05 02:27:40;;;;;;;2.23;1.47;;;9.50;99.90;;;;;;6256874;28;20225;-72
2021/05/05 02:30:45;;;;;;;1.70;1.60;;;9.50;99.90;;;;;;6256825;28;20225;-72
2021/05/05 02:33:51;;;;;;;2.43;1.50;;;9.60;99.90;;;;;;6257151;28;20229;-71
2021/05/05 02:36:54;;;;;;;2.20;1.40;;;9.60;99.90;;;;;;6256994;28;20224;-71
2021/05/05 02:39:56;;;;;;;2.20;1.43;;;9.60;99.90;;;;;;6234131;28;20228;-71
2021/05/05 02:43:03;;;;;;;2.90;1.60;;;9.60;99.90;;;;;;6232390;28;20313;-71
2021/05/05 02:46:05;;;;;;;2.50;1.27;;;9.60;99.90;;;;;;6234370;28;20226;-71
2021/05/05 02:49:08;;;;;;;2.17;1.60;;;9.60;99.90;;;;;;6236781;28;20244;-71
2021/05/05 02:52:11;;;;;;;1.40;1.30;;;9.70;99.90;;;;;;6257898;28;20704;-71
2021/05/05 02:55:14;;;;;;;2.27;1.47;;;9.70;99.90;;;;;;6256244;28;20233;-71
2021/05/05 02:58:20;;;;;;;2.17;1.60;;;9.70;99.90;;;;;;6256375;28;20241;-71
2021/05/05 03:01:22;;;;;;;1.90;1.70;;;9.70;99.90;;;;;;6256173;28;20219;-71
2021/05/05 03:04:25;;;;;;;1.70;1.60;;;9.70;99.90;;;;;;6257763;28;20312;-71
2021/05/05 03:07:27;;;;;;;1.50;1.40;;;9.70;99.90;;;;;;6256841;28;20231;-71
2021/05/05 03:10:29;;;;;;;2.37;1.60;;;9.70;99.90;;;;;;6238705;28;20364;-71
2021/05/05 03:13:32;;;;;;;2.10;1.50;;;9.70;99.90;;;;;;6233109;28;20344;-71
2021/05/05 03:16:34;;;;;;;4.67;1.63;;;9.70;99.90;;;;;;6233108;28;20233;-71
2021/05/05 03:19:36;;;;;;;3.10;1.60;;;9.80;99.90;;;;;;6240529;28;20236;-71
2021/05/05 03:22:38;;;;;;;1.97;1.30;;;9.80;99.90;;;;;;6256586;28;20229;-71
2021/05/05 03:25:40;;;;;;;1.50;1.40;;;9.80;99.90;;;;;;6257162;28;20772;-71
2021/05/05 03:28:42;;;;;;;2.00;1.60;;;9.70;99.90;;;;;;6255885;28;20234;-71
2021/05/05 03:31:44;;;;;;;1.60;1.50;;;9.70;99.90;;;;;;6257500;28;20252;-71
2021/05/05 03:34:46;;;;;;;2.13;1.93;;;9.80;99.90;;;;;;6255054;28;20595;-71
2021/05/05 03:37:48;;;;;;;2.07;1.40;;;9.80;99.90;;;;;;6255431;28;20310;-71
2021/05/05 03:40:50;;;;;;;2.07;1.63;;;9.80;99.90;;;;;;6250297;28;20338;-71
2021/05/05 03:43:52;;;;;;;2.20;1.53;;;9.80;99.90;;;;;;6232553;28;20230;-71
2021/05/05 03:46:54;;;;;;;2.03;1.40;;;9.90;99.90;;;;;;6231302;28;20225;-71
2021/05/05 03:49:56;;;;;;;1.43;1.33;;;9.90;99.90;;;;;;6242237;28;20310;-71
2021/05/05 03:52:57;;;;;;;2.20;1.70;;;9.90;99.90;;;;;;6256315;28;20364;-71
2021/05/05 03:55:59;;;;;;;1.80;1.70;;;9.90;99.90;;;;;;6257211;28;20229;-71
2021/05/05 03:59:01;;;;;;;1.60;1.50;;;10.00;99.90;;;;;;6252232;28;20230;-71
2021/05/05 04:02:03;;;;;;;1.77;1.67;;;10.10;99.90;;;;;;6230495;28;20300;-71
2021/05/05 04:05:06;;;;;;;2.67;1.60;;;10.10;99.90;;;;;;6230335;28;20240;-71
2021/05/05 04:08:08;;;;;;;2.00;1.80;;;10.10;99.90;;;;;;6230445;28;20246;-71
2021/05/05 04:11:10;;;;;;;2.10;1.70;;;10.20;99.90;;;;;;6231631;28;20314;-71
2021/05/05 04:14:12;;;;;;;1.80;1.53;;;10.20;99.90;;;;;;6231883;28;20688;-71
2021/05/05 04:17:32;;;;;;;2.10;1.90;;;10.20;99.90;;;;;;6232559;28;20223;-71
2021/05/05 04:20:52;;;;;;;2.73;1.50;;;10.20;99.90;;;;;;6249152;28;20320;-71
2021/05/05 04:24:12;;;;;;;2.07;1.80;;;10.30;99.90;;;;;;6239829;28;20216;-71
2021/05/05 04:27:16;;;;;;;2.17;1.60;;;10.30;99.90;;;;;;6255664;28;20666;-71
2021/05/05 04:30:19;;;;;;;2.73;2.00;;;10.30;99.90;;;;;;6255104;28;20254;-71
2021/05/05 04:33:21;;;;;;;2.37;1.67;;;10.40;99.90;;;;;;6254122;28;20244;-71
2021/05/05 04:36:23;;;;;;;1.70;1.60;;;10.50;99.90;;;;;;6255258;28;20671;-71
2021/05/05 04:39:25;;;;;;;1.70;1.57;;;10.60;99.90;;;;;;6253721;28;20635;-71
2021/05/05 04:42:27;;;;;;;1.93;1.83;;;10.60;99.90;;;;;;6254698;28;20251;-71
2021/05/05 04:45:29;;;;;;;2.87;1.80;;;10.70;99.90;;;;;;6253639;28;20432;-71
2021/05/05 04:48:31;;;;;;;2.30;1.87;;;10.80;99.90;;;;;;6255250;28;20221;-71
2021/05/05 04:51:33;;;;;;;2.03;1.83;;;10.80;99.90;;;;;;6255220;28;20316;-71
2021/05/05 04:54:35;;;;;;;2.73;1.93;;;10.90;99.90;;;;;;6254016;28;20219;-71
2021/05/05 04:57:37;;;;;;;4.47;2.17;;;11.00;99.90;;;;;;6256517;28;20250;-71
2021/05/05 05:00:39;;;;;;;2.97;1.83;;;11.10;99.90;;;;;;6253130;28;20230;-71
2021/05/05 05:03:41;;;;;;;2.03;1.70;;;11.20;99.90;;;;;;6255691;28;20757;-71
2021/05/05 05:06:43;;;;;;;2.20;1.73;;;11.20;99.90;;;;;;6254351;28;20317;-71
2021/05/05 05:09:44;;;;;;;1.90;1.70;;;11.30;99.90;;;;;;6241386;28;20239;-71
2021/05/05 05:12:46;;;;;;;3.33;1.97;;;11.40;99.90;;;;;;6231326;28;20340;-71
2021/05/05 05:15:48;;;;;;;1.97;1.60;;;11.40;99.90;;;;;;6225565;28;20232;-71
2021/05/05 05:18:50;;;;;;;2.07;1.70;;;11.40;99.90;;;;;;6209322;28;20270;-71
2021/05/05 05:21:52;;;;;;;1.60;1.50;;;11.40;99.90;;;;;;6255098;28;20673;-71
2021/05/05 05:24:54;;;;;;;1.50;1.40;;;11.30;99.90;;;;;;6254492;28;20322;-71
2021/05/05 05:27:56;;;;;;;2.70;1.60;;;11.30;99.90;;;;;;6253440;28;20643;-71
2021/05/05 05:30:58;;;;;;;2.13;1.93;;;11.20;99.90;;;;;;6254113;28;20238;-71
2021/05/05 05:34:00;;;;;;;1.70;1.60;;;11.20;99.90;;;;;;6256030;28;20647;-71
2021/05/05 05:37:02;;;;;;;1.73;1.63;;;11.20;99.90;;;;;;6255489;28;20227;-71
2021/05/05 05:40:05;;;;;;;1.40;1.30;;;11.10;99.90;;;;;;6254906;28;20231;-72
2021/05/05 05:43:06;;;;;;;3.73;1.77;;;11.00;99.90;;;;;;6255324;28;20368;-72
2021/05/05 05:46:09;;;;;;;2.30;1.70;;;11.00;99.90;;;;;;6254574;28;20226;-72
2021/05/05 05:49:11;;;;;;;1.83;1.50;;;11.00;99.90;;;;;;6254293;28;20324;-71
2021/05/05 05:52:13;;;;;;;1.73;1.60;;;11.00;99.90;;;;;;6253567;28;20379;-71
2021/05/05 05:55:18;;;;;;;1.90;1.80;;;10.90;99.90;;;;;;6255296;28;20741;-71
2021/05/05 05:58:20;;;;;;;2.00;1.90;;;10.90;99.90;;;;;;6236835;28;20230;-71
2021/05/05 06:01:21;;;;;;;1.90;1.80;;;10.90;99.90;;;;;;6252845;28;20230;-71
2021/05/05 06:04:23;;;;;;;2.33;2.13;;;10.90;99.90;;;;;;6254505;28;20305;-71
2021/05/05 06:07:25;;;;;;;2.07;1.77;;;11.00;99.90;;;;;;6258631;28;20574;-71
2021/05/05 06:10:27;;;;;;;2.13;1.93;;;11.00;99.90;;;;;;6240402;28;20247;-71
2021/05/05 06:13:29;;;;;;;2.87;2.00;;;11.00;99.90;;;;;;6234520;28;20293;-71
2021/05/05 06:16:32;;;;;;;3.17;2.07;;;11.10;99.90;;;;;;6234297;28;20377;-72
2021/05/05 06:19:34;;;;;;;2.03;1.83;;;11.30;99.90;;;;;;6240257;28;20234;-72
2021/05/05 06:22:36;;;;;;;2.07;1.70;;;11.40;99.90;;;;;;6259552;28;20731;-71
2021/05/05 06:25:38;;;;;;;4.40;2.00;;;11.50;99.90;;;;;;6257596;28;20615;-72
2021/05/05 06:28:41;;;;;;;3.07;1.70;;;11.70;99.90;;;;;;6258309;28;20384;-71
2021/05/05 06:31:42;;;;;;;1.70;1.60;;;11.90;99.90;;;;;;6256085;28;20276;-71
2021/05/05 06:34:44;;;;;;;2.03;1.83;;;12.00;99.90;;;;;;6257190;28;20235;-71
2021/05/05 06:37:46;;;;;;;1.70;1.60;;;12.10;99.90;;;;;;6257040;28;20236;-71
2021/05/05 06:40:48;;;;;;;1.70;1.60;;;12.20;99.90;;;;;;6259701;28;20234;-71
2021/05/05 06:43:50;;;;;;;2.83;1.80;;;12.20;99.90;;;;;;6238369;28;20235;-71
2021/05/05 06:46:54;;;;;;;1.90;1.70;;;12.30;99.90;;;;;;6237623;28;20236;-71
2021/05/05 06:49:57;;;;;;;2.30;1.67;;;12.50;99.90;;;;;;6244428;28;20246;-71
2021/05/05 06:52:58;;;;;;;3.10;1.57;;;12.70;99.90;;;;;;6257536;28;20365;-71
2021/05/05 06:56:01;;;;;;;1.73;1.53;;;13.00;99.90;;;;;;6257822;28;20264;-71
2021/05/05 06:59:03;;;;;;;2.40;1.60;;;13.30;99.90;;;;;;6255568;28;20227;-71
2021/05/05 07:02:05;;;;;;;2.83;1.40;;;13.60;99.90;;;;;;6258578;28;20236;-71
2021/05/05 07:05:08;;;;;;;1.33;1.23;;;14.00;99.90;;;;;;6257953;28;20262;-71
2021/05/05 07:08:09;;;;;;;2.63;1.60;;;14.50;99.90;;;;;;6255679;28;20230;-71
2021/05/05 07:11:11;;;;;;;2.07;1.50;;;14.80;99.90;;;;;;6231863;28;20238;-71
2021/05/05 07:14:13;;;;;;;3.07;1.70;;;15.10;99.90;;;;;;6232559;28;20303;-71
2021/05/05 07:17:15;;;;;;;2.43;1.43;;;15.50;99.90;;;;;;6230866;28;20697;-71
2021/05/05 07:20:18;;;;;;;2.27;1.50;;;15.90;98.80;;;;;;6245914;28;20281;-71
2021/05/05 07:23:20;;;;;;;1.50;1.40;;;16.20;97.70;;;;;;6256445;28;20318;-72
2021/05/05 07:26:22;;;;;;;3.13;1.40;;;16.70;95.60;;;;;;6257925;28;20233;-72
2021/05/05 07:29:24;;;;;;;2.70;1.60;;;17.00;93.60;;;;;;6257012;28;20258;-72
2021/05/05 07:32:26;;;;;;;5.63;2.20;;;17.50;92.20;;;;;;6256198;28;20333;-72
2021/05/05 07:35:29;;;;;;;3.53;2.00;;;17.90;87.30;;;;;;6256837;28;20237;-72
2021/05/05 07:45:15;;;;;;;3.03;1.80;;;18.70;77.10;;;;;;6231385;28;20247;-71
2021/05/05 07:51:38;;;;;;;5.10;2.13;;;19.30;63.10;;;;;;6254720;28;20234;-71
2021/05/05 07:54:40;;;;;;;4.40;1.90;;;19.60;60.30;;;;;;6256122;28;20628;-71
2021/05/05 07:57:42;;;;;;;3.57;2.20;;;19.90;60.00;;;;;;6256865;28;20578;-70
2021/05/05 08:00:44;;;;;;;2.40;2.10;;;19.90;58.60;;;;;;6240025;28;20242;-71
2021/05/05 08:03:46;;;;;;;4.37;2.23;;;20.00;58.30;;;;;;6231497;28;20239;-71
2021/05/05 08:06:48;;;;;;;1.87;1.70;;;20.20;57.90;;;;;;6232632;28;20235;-70
2021/05/05 08:09:50;;;;;;;2.20;1.90;;;20.50;56.50;;;;;;6230232;28;20228;-70
2021/05/05 08:12:51;;;;;;;3.30;2.20;;;20.90;56.60;;;;;;6246598;28;20228;-70
2021/05/05 08:15:57;;;;;;;4.00;2.07;;;21.10;56.00;;;;;;6229890;28;20361;-71
2021/05/05 08:18:59;;;;;;;3.57;2.50;;;21.20;53.40;;;;;;6234792;28;20231;-71
2021/05/05 08:22:02;;;;;;;2.70;1.97;;;21.20;52.50;;;;;;6256289;28;20310;-70
2021/05/05 08:25:06;;;;;;;3.90;1.80;;;21.40;54.40;;;;;;6256891;28;20235;-71
2021/05/05 08:28:08;;;;;;;2.70;2.07;;;21.60;54.40;;;;;;6255163;28;20246;-70
2021/05/05 08:31:10;;;;;;;3.80;2.17;;;21.80;53.90;;;;;;6253869;28;20316;-71
2021/05/05 08:34:12;;;;;;;2.97;1.93;;;21.80;51.90;;;;;;6253559;28;20235;-71
2021/05/05 08:37:14;;;;;;;2.80;2.60;;;21.90;52.50;;;;;;6255752;28;20330;-70
2021/05/05 08:40:16;;;;;;;2.93;2.50;;;22.10;50.90;;;;;;6255394;28;20625;-70
2021/05/05 08:43:18;;;;;;;2.57;2.37;;;22.10;50.40;;;;;;6254214;28;20254;-70
2021/05/05 08:46:21;;;;;;;3.83;2.33;;;21.80;50.00;;;;;;6255531;28;20365;-71
2021/05/05 08:49:23;;;;;;;7.23;2.80;;;21.80;49.80;;;;;;6253065;28;20246;-71
2021/05/05 08:52:24;;;;;;;3.17;2.33;;;21.20;50.80;;;;;;6255521;28;20227;-71
2021/05/05 08:55:29;;;;;;;4.30;2.57;;;20.70;51.90;;;;;;6255212;28;20238;-71
2021/05/05 08:58:30;;;;;;;3.03;2.37;;;20.60;52.70;;;;;;6255887;28;20592;-72
2021/05/05 09:01:33;;;;;;;2.37;2.00;;;20.70;53.10;;;;;;6255368;28;20288;-71
2021/05/05 09:04:36;;;;;;;3.97;2.40;;;21.00;51.80;;;;;;6254285;28;20448;-71
2021/05/05 09:07:40;;;;;;;2.13;1.93;;;21.10;51.70;;;;;;6254187;28;20227;-71
2021/05/05 09:10:55;;;;;;;5.47;2.17;;;21.60;52.40;;;;;;6233216;28;20330;-70
2021/05/05 09:13:59;;;;;;;4.53;2.00;;;22.10;51.80;;;;;;6231020;28;20654;-70
2021/05/05 09:17:00;;;;;;;3.50;2.37;;;22.40;51.80;;;;;;6229217;28;20648;-70
2021/05/05 09:20:05;;;;;;;3.03;2.17;;;23.00;52.10;;;;;;6240086;28;20540;-70
2021/05/05 09:23:07;;;;;;;3.17;2.77;;;23.40;51.00;;;;;;6254930;28;20227;-70
2021/05/05 09:26:09;;;;;;;3.50;2.33;;;23.40;48.60;;;;;;6255256;28;20314;-70
2021/05/05 09:29:12;;;;;;;2.87;2.47;;;23.40;47.70;;;;;;6253393;28;20245;-70
2021/05/05 09:32:21;;;;;;;2.93;1.77;;;23.40;48.90;;;;;;6254289;28;20258;-70
2021/05/05 09:35:35;;;;;;;3.43;2.60;;;23.70;48.60;;;;;;6254727;28;20365;-70
2021/05/05 09:38:49;;;;;;;2.60;2.30;;;23.80;46.50;;;;;;6256858;28;20235;-70
2021/05/05 09:41:51;;;;;;;3.10;1.90;;;23.90;47.30;;;;;;6260694;28;20655;-70
2021/05/05 09:45:10;;;;;;;5.97;2.50;;;24.10;48.10;;;;;;6256869;28;20314;-71
2021/05/05 09:48:20;;;;;;;3.37;2.63;;;24.50;49.00;;;;;;6259096;28;20226;-70
2021/05/05 09:51:22;;;;;;;3.67;2.50;;;24.60;44.60;;;;;;6257963;28;20302;-70
2021/05/05 09:54:25;;;;;;;3.80;2.37;;;24.70;45.70;;;;;;6258411;28;20229;-70
2021/05/05 09:57:30;;;;;;;4.07;2.23;;;24.80;44.60;;;;;;6260353;28;20215;-71
2021/05/05 10:00:31;;;;;;;3.20;2.53;;;24.30;45.90;;;;;;6260335;28;20226;-71
2021/05/05 10:03:48;;;;;;;5.77;2.90;;;23.60;47.30;;;;;;6259684;28;20651;-71
2021/05/05 10:06:57;;;;;;;5.93;3.17;;;22.40;48.40;;;;;;6259596;28;20230;-71
2021/05/05 10:09:59;;;;;;;4.87;2.63;;;21.50;49.90;;;;;;6242902;28;20232;-71
2021/05/05 10:13:04;;;;;;;4.03;2.43;;;20.70;50.90;;;;;;6249844;28;20235;-71
2021/05/05 10:16:07;;;;;;;6.80;2.83;;;20.20;53.00;;;;;;6232590;28;20228;-71
2021/05/05 10:19:22;;;;;;;4.07;2.27;;;20.00;53.10;;;;;;6237624;28;20239;-72
2021/05/05 10:22:25;;;;;;;3.10;2.13;;;19.80;53.40;;;;;;6258729;28;20235;-71
2021/05/05 10:25:27;;;;;;;5.23;2.53;;;19.90;54.30;;;;;;6258539;28;20238;-71
2021/05/05 10:28:29;;;;;;;3.70;2.30;;;20.00;53.50;;;;;;6256385;28;20396;-70
2021/05/05 10:31:35;;;;;;;3.87;2.37;;;20.10;53.90;;;;;;6257045;28;20227;-71
2021/05/05 10:34:44;;;;;;;3.27;2.80;;;20.10;54.10;;;;;;6257821;28;20296;-71
2021/05/05 10:37:49;;;;;;;3.43;2.40;;;20.10;53.00;;;;;;6256835;28;20238;-71
2021/05/05 10:41:06;;;;;;;6.03;2.60;;;20.00;53.80;;;;;;6256130;28;20234;-71
2021/05/05 10:44:08;;;;;;;3.17;2.60;;;19.80;53.30;;;;;;6233320;28;20252;-71
2021/05/05 10:47:22;;;;;;;2.53;2.33;;;19.60;54.00;;;;;;6249457;28;20227;-71
2021/05/05 10:50:24;;;;;;;3.17;2.40;;;19.20;55.30;;;;;;6225622;28;20232;-71
2021/05/05 10:53:47;;;;;;;2.47;2.27;;;19.00;55.40;;;;;;6233757;28;20231;-71
2021/05/05 10:57:10;;;;;;;2.50;2.30;;;18.90;55.90;;;;;;6231515;28;20228;-71
2021/05/05 11:00:13;;;;;;;4.17;2.17;;;18.90;55.80;;;;;;6236184;28;20231;-71
2021/05/05 11:03:17;;;;;;;3.57;2.17;;;18.80;56.00;;;;;;6235786;28;20212;-70
2021/05/05 11:06:36;;;;;;;3.03;2.10;;;18.70;56.50;;;;;;6233147;28;20681;-71
2021/05/05 11:09:40;;;;;;;8.20;2.00;;;18.60;56.90;;;;;;6210195;28;20257;-71
2021/05/05 11:12:42;;;;;;;1.90;1.70;;;18.50;57.10;;;;;;6207701;28;20391;-71
2021/05/05 11:15:44;;;;;;;2.23;2.03;;;18.30;58.00;;;;;;6230091;28;20239;-71
2021/05/05 11:18:47;;;;;;;6.00;1.80;;;18.00;58.50;;;;;;6210856;28;20290;-71
2021/05/05 11:21:49;;;;;;;2.43;1.70;;;17.60;59.80;;;;;;6257229;28;20246;-70
2021/05/05 11:24:52;;;;;;;2.50;1.50;;;17.00;63.70;;;;;;6256221;28;20234;-71
2021/05/05 11:27:55;;;;;;;3.10;1.47;;;16.50;68.10;;;;;;6256980;28;20238;-71
2021/05/05 11:30:59;;;;;;;1.60;1.30;;;15.80;72.50;;;;;;6257013;28;20250;-70
2021/05/05 11:34:03;;;;;;;1.83;1.03;;;15.30;76.60;;;;;;6257454;28;20329;-70
2021/05/05 11:37:14;;;;;;;1.87;1.07;;;14.80;82.00;;;;;;6258806;28;20293;-71
2021/05/05 11:40:19;;;;;;;1.77;1.10;;;14.50;85.80;;;;;;6257072;28;20231;-71
2021/05/05 11:43:22;;;;;;;4.47;1.07;;;14.20;90.30;;;;;;6242283;28;20232;-72
2021/05/05 11:46:25;;;;;;;1.00;0.90;;;14.10;92.00;;;;;;6232863;28;20691;-72
2021/05/05 11:49:39;;;;;;;1.03;0.90;;;13.90;93.50;;;;;;6231859;28;20239;-71
2021/05/05 11:52:47;;;;;;;1.23;1.07;;;13.90;94.90;;;;;;6231883;28;20344;-72
2021/05/05 11:55:49;;;;;;;1.10;1.00;;;14.00;97.00;;;;;;6232768;28;20255;-70
2021/05/05 11:59:02;;;;;;;3.10;0.87;;;14.10;96.90;;;;;;6229943;28;20232;-70
2021/05/05 12:02:05;;;;;;;0.87;0.60;;;14.50;95.50;;;;;;6231161;28;20236;-70
2021/05/05 12:05:07;;;;;;;2.00;0.57;;;14.90;92.30;;;;;;6231576;28;20646;-70
2021/05/05 12:08:18;;;;;;;0.30;0.30;;;15.20;90.20;;;;;;6246257;28;20323;-70
2021/05/05 12:11:20;;;;;;;2.37;0.40;;;15.40;83.70;;;;;;6206846;28;20702;-71
2021/05/05 12:14:29;;;;;;;0.50;0.30;;;15.40;81.30;;;;;;6192591;28;20231;-71
2021/05/05 12:17:46;;;;;;;1.13;0.40;;;15.30;79.90;;;;;;6230296;28;20709;-70
2021/05/05 12:20:50;;;;;;;0.27;0.27;;;15.30;79.90;;;;;;6250807;28;20313;-70
2021/05/05 12:24:00;;;;;;;0.33;0.30;;;15.20;79.20;;;;;;6256716;28;20239;-71
2021/05/05 12:27:07;;;;;;;3.83;0.30;;;15.20;79.90;;;;;;6254662;28;20232;-71
2021/05/05 12:30:10;;;;;;;0.83;0.23;;;15.30;79.20;;;;;;6255130;28;20308;-71
2021/05/05 12:33:37;;;;;;;0.20;0.20;;;15.10;77.80;;;;;;6253814;28;20258;-69
2021/05/05 12:36:42;;;;;;;0.23;0.23;;;14.70;77.40;;;;;;6255818;28;20230;-70
2021/05/05 12:39:46;;;;;;;0.20;0.20;;;14.50;79.20;;;;;;6255014;28;20234;-68
2021/05/05 12:42:47;;;;;;;0.20;0.20;;;14.30;80.10;;;;;;6256176;28;20311;-71
2021/05/05 12:45:52;;;;;;;2.63;0.30;;;14.20;82.30;;;;;;6255650;28;20624;-70
2021/05/05 12:48:56;;;;;;;0.33;0.20;;;14.00;87.10;;;;;;6254769;28;20335;-71
2021/05/05 12:51:58;;;;;;;0.30;0.20;;;13.80;90.30;;;;;;6255569;28;20245;-70
2021/05/05 12:55:38;;;;;;;0.13;0.10;;;13.60;91.60;;;;;;6254715;28;20257;-70
2021/05/05 12:58:43;;;;;;;0.10;0.10;;;13.20;92.90;;;;;;6154814;28;20256;-70
2021/05/05 13:01:48;;;;;;;0.23;0.23;;;12.90;95.40;;;;;;6154379;28;20224;-70
2021/05/05 13:05:00;;;;;;;0.20;0.20;;;12.80;94.40;;;;;;6154998;28;20223;-70
2021/05/05 13:08:11;;;;;;;0.47;0.30;;;12.60;95.40;;;;;;6155126;28;20230;-71
2021/05/05 13:11:29;;;;;;;0.93;0.30;;;12.40;97.20;;;;;;6132311;28;20331;-70
2021/05/05 13:14:44;;;;;;;0.50;0.20;;;12.30;98.70;;;;;;6134338;28;20234;-71
2021/05/05 13:31:34;;;;;;;0.30;0.30;;;11.60;99.90;;;;;;6142961;28;20281;-72
2021/05/05 13:34:36;;;;;;;0.70;0.70;;;11.50;99.90;;;;;;6233709;28;20267;-70
2021/05/05 13:37:38;;;;;;;2.10;0.50;;;11.40;99.90;;;;;;6235579;28;20242;-72
2021/05/05 13:40:42;;;;;;;1.07;0.60;;;11.40;99.90;;;;;;6233468;28;20599;-71
2021/05/05 13:43:49;;;;;;;1.33;0.53;;;11.30;99.90;;;;;;6240647;28;20439;-71
2021/05/05 13:49:56;;;;;;;1.57;0.77;;;11.10;99.90;;;;;;6244836;28;20619;-70
2021/05/05 13:52:59;;;;;;;0.70;0.70;;;10.90;99.90;;;;;;6260980;28;20243;-70
2021/05/05 13:56:01;;;;;;;1.03;0.93;;;10.80;99.90;;;;;;6258855;28;20708;-70
2021/05/05 13:59:03;;;;;;;1.30;1.20;;;10.80;99.90;;;;;;6259719;28;20231;-72
2021/05/05 14:02:08;;;;;;;1.47;1.20;;;10.60;99.90;;;;;;6258666;28;20234;-70
2021/05/05 14:05:14;;;;;;;1.10;1.00;;;10.50;99.90;;;;;;6256720;28;20322;-70
2021/05/05 14:08:16;;;;;;;1.53;1.43;;;10.40;99.90;;;;;;6259426;28;20233;-70
2021/05/05 14:11:18;;;;;;;1.10;1.00;;;10.20;99.90;;;;;;6232755;28;20246;-70
2021/05/05 14:14:21;;;;;;;1.40;1.30;;;10.10;99.90;;;;;;6234751;28;20227;-70
2021/05/05 14:17:23;;;;;;;1.20;1.10;;;10.10;99.90;;;;;;6234635;28;20305;-70
2021/05/05 14:20:25;;;;;;;1.10;0.87;;;10.20;99.90;;;;;;6248336;28;20227;-70
2021/05/05 14:23:27;;;;;;;1.17;1.00;;;10.20;99.90;;;;;;6258730;28;20377;-71
2021/05/05 14:26:28;;;;;;;1.10;1.00;;;10.20;99.90;;;;;;6256794;28;20283;-70
2021/05/05 14:29:30;;;;;;;1.63;0.90;;;10.20;99.90;;;;;;6257348;28;20620;-71
2021/05/05 14:32:34;;;;;;;1.27;0.80;;;10.20;99.90;;;;;;6240317;28;20243;-69
2021/05/05 14:35:37;;;;;;;2.07;0.90;;;10.20;99.90;;;;;;6257392;28;20245;-70
2021/05/05 14:38:42;;;;;;;0.90;0.90;;;10.20;99.90;;;;;;6245357;28;20283;-70
2021/05/05 14:41:46;;;;;;;1.00;1.00;;;10.20;99.90;;;;;;6231781;28;20235;-70
2021/05/05 14:45:57;;;;;;;2.13;1.30;;;10.00;99.90;;;;;;6233339;28;20322;-71
2021/05/05 14:51:21;;;;;;;1.17;1.07;;;9.80;99.90;;;;;;6233389;28;20231;-70
2021/05/05 14:54:23;;;;;;;1.73;0.93;;;9.70;99.90;;;;;;6232284;28;20717;-70
2021/05/05 14:57:30;;;;;;;1.27;1.10;;;9.70;99.90;;;;;;6232248;28;20309;-70
2021/05/05 15:00:33;;;;;;;1.20;1.10;;;9.70;99.90;;;;;;6234455;28;20230;-71
2021/05/05 15:03:35;;;;;;;1.30;1.20;;;9.60;99.90;;;;;;6233064;28;20603;-70
2021/05/05 15:06:42;;;;;;;1.27;0.93;;;9.60;99.90;;;;;;6234432;28;20718;-70
2021/05/05 15:12:59;;;;;;;1.27;1.00;;;9.50;99.90;;;;;;6208480;28;20325;-69
2021/05/05 15:29:17;;;;;;;0.60;0.60;;;9.20;99.90;;;;;;6233969;28;20235;-70
2021/05/05 15:35:41;;;;;;;4.03;0.80;;;9.10;99.90;;;;;;6231802;28;20700;-70
2021/05/05 15:38:51;;;;;;;1.23;0.80;;;9.00;99.90;;;;;;6232089;28;20266;-70
2021/05/05 15:41:57;;;;;;;1.00;0.80;;;8.90;99.90;;;;;;6231525;28;20233;-70
2021/05/05 15:45:03;;;;;;;0.90;0.70;;;9.00;99.90;;;;;;6232946;28;20229;-70
2021/05/05 15:48:06;;;;;;;1.87;0.40;;;8.80;99.90;;;;;;6231515;28;20234;-69
2021/05/05 15:51:08;;;;;;;0.60;0.60;;;8.80;99.90;;;;;;6232615;28;20242;-71
2021/05/05 15:54:10;;;;;;;2.43;0.83;;;8.70;99.90;;;;;;6233740;28;20215;-70
2021/05/05 15:57:13;;;;;;;0.93;0.70;;;8.70;99.90;;;;;;6230700;28;20220;-70
2021/05/05 16:16:14;;;;;;;1.00;0.60;;;8.60;99.90;;;;;;6230868;28;20685;-70
2021/05/05 16:19:19;;;;;;;0.57;0.50;;;8.60;99.90;;;;;;6246943;28;20232;-69
2021/05/05 16:25:42;;;;;;;0.67;0.50;;;8.60;99.90;;;;;;6230965;28;20238;-70
2021/05/05 16:45:57;;;;;;;0.50;0.50;;;8.70;99.90;;;;;;6205201;28;20336;-69
2021/05/05 16:49:05;;;;;;;0.60;0.53;;;8.70;99.90;;;;;;6230221;28;20230;-69
2021/05/05 17:09:09;;;;;;;0.60;0.60;;;8.60;99.90;;;;;;6227298;28;20595;-69
2021/05/05 17:12:02;;;;;;;0.60;0.60;;;8.70;99.90;;;;;;6228101;28;20234;-70
2021/05/05 17:15:10;;;;;;;2.67;0.70;;;8.70;99.90;;;;;;6231755;28;20580;-70
2021/05/05 17:18:39;;;;;;;1.50;0.70;;;8.80;99.90;;;;;;6231500;28;20243;-69
2021/05/05 17:21:43;;;;;;;1.80;1.00;;;8.80;99.90;;;;;;6206273;28;20228;-70
2021/05/05 17:28:21;;;;;;;1.67;0.90;;;8.80;99.90;;;;;;6205708;28;20281;-70
2021/05/05 18:21:25;;;;;;;1.50;0.80;;;8.70;99.90;;;;;;6160875;28;20244;-70
2021/05/05 18:30:50;;;;;;;1.53;0.80;;;8.60;99.90;;;;;;6159236;28;20331;-70
2021/05/05 18:33:52;;;;;;;2.30;1.03;;;8.60;99.90;;;;;;6157893;28;20315;-70
2021/05/05 18:36:54;;;;;;;3.17;1.10;;;8.60;99.90;;;;;;6158899;28;20355;-70
2021/05/05 18:39:58;;;;;;;2.27;1.00;;;8.70;99.90;;;;;;6158229;28;20228;-70
2021/05/05 19:07:04;;;;;;;3.00;1.17;;;8.70;99.90;;;;;;6231490;28;20228;-70
2021/05/05 20:33:19;;;;;;;2.60;1.10;;;8.20;99.90;;;;;;6130249;29;20235;-71